sensor_id;sensor_type;location;lat;lon;timestamp;P1;durP1;ratioP1;P2;durP2;ratioP2
28174;SDS011;59417;44.788;10.334;2023-08-07T00:02:51;7.80;;;2.40;;
28174;SDS011;59417;44.788;10.334;2023-08-07T00:13:33;6.50;;;2.15;;
28174;SDS011;59417;44.788;10.334;2023-08-07T00:16:02;9.50;;;2.60;;
28174;SDS011;59417;44.788;10.334;2023-08-07T00:18:45;7.82;;;2.60;;
28174;SDS011;59417;44.788;10.334;2023-08-07T00:25:10;9.57;;;2.63;;
28174;SDS011;59417;44.788;10.334;2023-08-07T00:38:54;11.48;;;2.70;;
28174;SDS011;59417;44.788;10.334;2023-08-07T00:49:14;9.80;;;2.13;;
28174;SDS011;59417;44.788;10.334;2023-08-07T00:52:09;5.25;;;2.55;;
28174;SDS011;59417;44.788;10.334;2023-08-07T00:55:28;5.70;;;2.30;;
28174;SDS011;59417;44.788;10.334;2023-08-07T00:59:02;6.22;;;2.35;;
28174;SDS011;59417;44.788;10.334;2023-08-07T01:05:05;5.25;;;2.08;;
28174;SDS011;59417;44.788;10.334;2023-08-07T01:15:09;7.10;;;2.00;;
28174;SDS011;59417;44.788;10.334;2023-08-07T01:21:18;4.80;;;2.33;;
28174;SDS011;59417;44.788;10.334;2023-08-07T01:35:07;4.45;;;1.77;;
28174;SDS011;59417;44.788;10.334;2023-08-07T01:38:32;2.78;;;2.03;;
28174;SDS011;59417;44.788;10.334;2023-08-07T01:51:10;4.35;;;1.60;;
28174;SDS011;59417;44.788;10.334;2023-08-07T01:57:10;2.38;;;1.25;;
28174;SDS011;59417;44.788;10.334;2023-08-07T02:03:27;3.28;;;1.40;;
28174;SDS011;59417;44.788;10.334;2023-08-07T02:06:03;3.17;;;1.35;;
28174;SDS011;59417;44.788;10.334;2023-08-07T02:08:57;1.83;;;1.15;;
28174;SDS011;59417;44.788;10.334;2023-08-07T02:12:14;4.10;;;1.38;;
28174;SDS011;59417;44.788;10.334;2023-08-07T02:15:13;2.60;;;1.40;;
28174;SDS011;59417;44.788;10.334;2023-08-07T02:18:20;3.13;;;1.20;;
28174;SDS011;59417;44.788;10.334;2023-08-07T02:34:32;1.40;;;0.90;;
28174;SDS011;59417;44.788;10.334;2023-08-07T02:37:50;4.65;;;1.27;;
28174;SDS011;59417;44.788;10.334;2023-08-07T02:44:38;2.03;;;1.10;;
28174;SDS011;59417;44.788;10.334;2023-08-07T02:47:32;1.55;;;1.00;;
28174;SDS011;59417;44.788;10.334;2023-08-07T02:50:42;2.05;;;0.98;;
28174;SDS011;59417;44.788;10.334;2023-08-07T03:00:34;4.03;;;1.00;;
28174;SDS011;59417;44.788;10.334;2023-08-07T03:03:14;2.80;;;0.90;;
28174;SDS011;59417;44.788;10.334;2023-08-07T03:06:06;3.92;;;0.73;;
28174;SDS011;59417;44.788;10.334;2023-08-07T03:09:02;2.88;;;1.10;;
28174;SDS011;59417;44.788;10.334;2023-08-07T03:15:32;4.30;;;1.02;;
28174;SDS011;59417;44.788;10.334;2023-08-07T03:19:07;3.08;;;1.02;;
28174;SDS011;59417;44.788;10.334;2023-08-07T03:21:42;1.25;;;1.10;;
28174;SDS011;59417;44.788;10.334;2023-08-07T03:24:51;2.30;;;1.00;;
28174;SDS011;59417;44.788;10.334;2023-08-07T03:28:04;3.92;;;1.25;;
28174;SDS011;59417;44.788;10.334;2023-08-07T03:37:31;5.60;;;1.60;;
28174;SDS011;59417;44.788;10.334;2023-08-07T03:41:00;3.55;;;1.30;;
28174;SDS011;59417;44.788;10.334;2023-08-07T03:43:36;2.40;;;1.43;;
28174;SDS011;59417;44.788;10.334;2023-08-07T03:46:52;5.40;;;1.10;;
28174;SDS011;59417;44.788;10.334;2023-08-07T03:53:18;2.03;;;1.20;;
28174;SDS011;59417;44.788;10.334;2023-08-07T03:56:47;1.70;;;1.30;;
28174;SDS011;59417;44.788;10.334;2023-08-07T04:03:03;5.15;;;1.15;;
28174;SDS011;59417;44.788;10.334;2023-08-07T04:08:57;2.10;;;1.08;;
28174;SDS011;59417;44.788;10.334;2023-08-07T04:14:51;3.50;;;1.23;;
28174;SDS011;59417;44.788;10.334;2023-08-07T04:17:22;2.05;;;1.23;;
28174;SDS011;59417;44.788;10.334;2023-08-07T04:20:19;2.28;;;1.10;;
28174;SDS011;59417;44.788;10.334;2023-08-07T04:26:45;3.42;;;1.10;;
28174;SDS011;59417;44.788;10.334;2023-08-07T04:29:52;3.38;;;1.15;;
28174;SDS011;59417;44.788;10.334;2023-08-07T04:32:46;2.60;;;1.25;;
28174;SDS011;59417;44.788;10.334;2023-08-07T04:38:22;5.30;;;0.97;;
28174;SDS011;59417;44.788;10.334;2023-08-07T04:41:31;2.63;;;1.08;;
28174;SDS011;59417;44.788;10.334;2023-08-07T04:44:19;3.63;;;1.50;;
28174;SDS011;59417;44.788;10.334;2023-08-07T04:50:30;4.05;;;1.23;;
28174;SDS011;59417;44.788;10.334;2023-08-07T05:00:05;1.10;;;0.85;;
28174;SDS011;59417;44.788;10.334;2023-08-07T05:06:20;1.95;;;1.20;;
28174;SDS011;59417;44.788;10.334;2023-08-07T05:12:05;3.05;;;1.10;;
28174;SDS011;59417;44.788;10.334;2023-08-07T05:15:16;2.55;;;1.00;;
28174;SDS011;59417;44.788;10.334;2023-08-07T05:18:20;1.20;;;1.02;;
28174;SDS011;59417;44.788;10.334;2023-08-07T05:21:22;1.83;;;1.15;;
28174;SDS011;59417;44.788;10.334;2023-08-07T05:24:37;1.23;;;0.82;;
28174;SDS011;59417;44.788;10.334;2023-08-07T05:27:06;1.20;;;1.10;;
28174;SDS011;59417;44.788;10.334;2023-08-07T05:33:24;1.02;;;0.93;;
28174;SDS011;59417;44.788;10.334;2023-08-07T05:39:07;3.55;;;1.17;;
28174;SDS011;59417;44.788;10.334;2023-08-07T05:45:30;2.88;;;0.75;;
28174;SDS011;59417;44.788;10.334;2023-08-07T05:54:58;0.73;;;0.63;;
28174;SDS011;59417;44.788;10.334;2023-08-07T06:04:55;1.92;;;0.70;;
28174;SDS011;59417;44.788;10.334;2023-08-07T06:08:13;1.25;;;0.52;;
28174;SDS011;59417;44.788;10.334;2023-08-07T06:10:54;0.57;;;0.57;;
28174;SDS011;59417;44.788;10.334;2023-08-07T06:13:44;0.90;;;0.60;;
28174;SDS011;59417;44.788;10.334;2023-08-07T06:16:44;0.95;;;0.55;;
28174;SDS011;59417;44.788;10.334;2023-08-07T06:19:30;0.57;;;0.40;;
28174;SDS011;59417;44.788;10.334;2023-08-07T06:22:05;0.95;;;0.60;;
28174;SDS011;59417;44.788;10.334;2023-08-07T06:24:30;1.42;;;0.70;;
28174;SDS011;59417;44.788;10.334;2023-08-07T06:26:56;1.38;;;0.73;;
28174;SDS011;59417;44.788;10.334;2023-08-07T06:29:22;0.65;;;0.52;;
28174;SDS011;59417;44.788;10.334;2023-08-07T06:31:48;2.20;;;1.15;;
28174;SDS011;59417;44.788;10.334;2023-08-07T06:34:13;5.13;;;0.77;;
28174;SDS011;59417;44.788;10.334;2023-08-07T06:36:39;0.65;;;0.57;;
28174;SDS011;59417;44.788;10.334;2023-08-07T06:39:04;1.48;;;0.52;;
28174;SDS011;59417;44.788;10.334;2023-08-07T06:41:30;0.57;;;0.57;;
28174;SDS011;59417;44.788;10.334;2023-08-07T06:43:56;0.73;;;0.60;;
28174;SDS011;59417;44.788;10.334;2023-08-07T06:46:22;1.20;;;0.57;;
28174;SDS011;59417;44.788;10.334;2023-08-07T06:51:17;0.75;;;0.65;;
28174;SDS011;59417;44.788;10.334;2023-08-07T06:53:43;0.73;;;0.60;;
28174;SDS011;59417;44.788;10.334;2023-08-07T06:56:09;0.98;;;0.60;;
28174;SDS011;59417;44.788;10.334;2023-08-07T06:58:37;0.85;;;0.57;;
28174;SDS011;59417;44.788;10.334;2023-08-07T07:01:05;1.02;;;0.60;;
28174;SDS011;59417;44.788;10.334;2023-08-07T07:03:31;0.65;;;0.50;;
28174;SDS011;59417;44.788;10.334;2023-08-07T07:05:57;4.38;;;0.65;;
28174;SDS011;59417;44.788;10.334;2023-08-07T07:08:23;1.13;;;0.70;;
28174;SDS011;59417;44.788;10.334;2023-08-07T07:10:48;2.88;;;0.85;;
28174;SDS011;59417;44.788;10.334;2023-08-07T07:13:14;2.88;;;0.63;;
28174;SDS011;59417;44.788;10.334;2023-08-07T07:15:40;0.85;;;0.63;;
28174;SDS011;59417;44.788;10.334;2023-08-07T07:18:05;1.17;;;0.50;;
28174;SDS011;59417;44.788;10.334;2023-08-07T07:20:31;1.13;;;0.55;;
28174;SDS011;59417;44.788;10.334;2023-08-07T07:22:57;0.70;;;0.60;;
28174;SDS011;59417;44.788;10.334;2023-08-07T07:25:22;1.20;;;0.60;;
28174;SDS011;59417;44.788;10.334;2023-08-07T07:27:48;0.73;;;0.65;;
28174;SDS011;59417;44.788;10.334;2023-08-07T07:30:13;0.52;;;0.52;;
28174;SDS011;59417;44.788;10.334;2023-08-07T07:32:39;1.20;;;0.68;;
28174;SDS011;59417;44.788;10.334;2023-08-07T07:35:05;1.25;;;0.73;;
28174;SDS011;59417;44.788;10.334;2023-08-07T07:37:31;0.45;;;0.45;;
28174;SDS011;59417;44.788;10.334;2023-08-07T07:39:57;0.50;;;0.50;;
28174;SDS011;59417;44.788;10.334;2023-08-07T07:42:22;1.95;;;0.60;;
28174;SDS011;59417;44.788;10.334;2023-08-07T07:44:48;0.85;;;0.68;;
28174;SDS011;59417;44.788;10.334;2023-08-07T07:47:14;3.28;;;0.73;;
28174;SDS011;59417;44.788;10.334;2023-08-07T07:49:44;0.73;;;0.57;;
28174;SDS011;59417;44.788;10.334;2023-08-07T07:52:13;5.00;;;0.60;;
28174;SDS011;59417;44.788;10.334;2023-08-07T07:54:39;2.58;;;0.60;;
28174;SDS011;59417;44.788;10.334;2023-08-07T07:57:04;1.20;;;0.60;;
28174;SDS011;59417;44.788;10.334;2023-08-07T07:59:30;1.08;;;0.52;;
28174;SDS011;59417;44.788;10.334;2023-08-07T08:01:56;0.40;;;0.40;;
28174;SDS011;59417;44.788;10.334;2023-08-07T08:04:21;2.45;;;0.50;;
28174;SDS011;59417;44.788;10.334;2023-08-07T08:06:47;2.08;;;0.47;;
28174;SDS011;59417;44.788;10.334;2023-08-07T08:09:13;0.63;;;0.40;;
28174;SDS011;59417;44.788;10.334;2023-08-07T08:11:39;1.23;;;0.63;;
28174;SDS011;59417;44.788;10.334;2023-08-07T08:14:04;1.42;;;0.60;;
28174;SDS011;59417;44.788;10.334;2023-08-07T08:16:30;0.52;;;0.52;;
28174;SDS011;59417;44.788;10.334;2023-08-07T08:18:55;0.47;;;0.47;;
28174;SDS011;59417;44.788;10.334;2023-08-07T08:21:21;0.57;;;0.57;;
28174;SDS011;59417;44.788;10.334;2023-08-07T08:23:47;0.98;;;0.57;;
28174;SDS011;59417;44.788;10.334;2023-08-07T08:26:12;0.50;;;0.50;;
28174;SDS011;59417;44.788;10.334;2023-08-07T08:28:38;0.85;;;0.55;;
28174;SDS011;59417;44.788;10.334;2023-08-07T08:31:03;0.85;;;0.65;;
28174;SDS011;59417;44.788;10.334;2023-08-07T08:33:29;0.95;;;0.35;;
28174;SDS011;59417;44.788;10.334;2023-08-07T08:35:55;2.38;;;0.70;;
28174;SDS011;59417;44.788;10.334;2023-08-07T08:38:20;2.42;;;0.70;;
28174;SDS011;59417;44.788;10.334;2023-08-07T08:40:47;1.33;;;0.70;;
28174;SDS011;59417;44.788;10.334;2023-08-07T08:43:16;2.05;;;0.45;;
28174;SDS011;59417;44.788;10.334;2023-08-07T08:45:43;3.17;;;0.40;;
28174;SDS011;59417;44.788;10.334;2023-08-07T08:48:09;1.02;;;0.70;;
28174;SDS011;59417;44.788;10.334;2023-08-07T08:50:42;0.52;;;0.40;;
28174;SDS011;59417;44.788;10.334;2023-08-07T08:53:08;1.13;;;0.70;;
28174;SDS011;59417;44.788;10.334;2023-08-07T08:55:34;3.13;;;0.50;;
28174;SDS011;59417;44.788;10.334;2023-08-07T08:58:01;2.28;;;0.70;;
28174;SDS011;59417;44.788;10.334;2023-08-07T09:00:28;1.23;;;0.60;;
28174;SDS011;59417;44.788;10.334;2023-08-07T09:02:55;1.95;;;0.75;;
28174;SDS011;59417;44.788;10.334;2023-08-07T09:05:22;0.85;;;0.63;;
28174;SDS011;59417;44.788;10.334;2023-08-07T09:07:48;1.77;;;0.50;;
28174;SDS011;59417;44.788;10.334;2023-08-07T09:10:14;2.40;;;0.80;;
28174;SDS011;59417;44.788;10.334;2023-08-07T09:12:43;1.33;;;0.65;;
28174;SDS011;59417;44.788;10.334;2023-08-07T09:15:16;1.85;;;0.60;;
28174;SDS011;59417;44.788;10.334;2023-08-07T09:17:45;1.48;;;0.75;;
28174;SDS011;59417;44.788;10.334;2023-08-07T09:20:11;4.03;;;0.65;;
28174;SDS011;59417;44.788;10.334;2023-08-07T09:22:41;1.67;;;0.55;;
28174;SDS011;59417;44.788;10.334;2023-08-07T09:25:07;3.40;;;0.85;;
28174;SDS011;59417;44.788;10.334;2023-08-07T09:27:36;0.95;;;0.40;;
28174;SDS011;59417;44.788;10.334;2023-08-07T09:30:04;2.47;;;0.80;;
28174;SDS011;59417;44.788;10.334;2023-08-07T09:32:31;1.25;;;0.77;;
28174;SDS011;59417;44.788;10.334;2023-08-07T09:34:57;0.50;;;0.50;;
28174;SDS011;59417;44.788;10.334;2023-08-07T09:37:23;1.80;;;0.90;;
28174;SDS011;59417;44.788;10.334;2023-08-07T09:39:48;1.25;;;0.57;;
28174;SDS011;59417;44.788;10.334;2023-08-07T09:42:14;1.30;;;0.73;;
28174;SDS011;59417;44.788;10.334;2023-08-07T09:44:41;0.60;;;0.50;;
28174;SDS011;59417;44.788;10.334;2023-08-07T09:47:17;1.00;;;0.75;;
28174;SDS011;59417;44.788;10.334;2023-08-07T09:49:44;1.00;;;0.60;;
28174;SDS011;59417;44.788;10.334;2023-08-07T09:52:11;3.92;;;0.80;;
28174;SDS011;59417;44.788;10.334;2023-08-07T09:54:39;2.67;;;0.80;;
28174;SDS011;59417;44.788;10.334;2023-08-07T09:57:05;1.20;;;0.75;;
28174;SDS011;59417;44.788;10.334;2023-08-07T09:59:32;3.17;;;0.70;;
28174;SDS011;59417;44.788;10.334;2023-08-07T10:02:02;1.83;;;1.00;;
28174;SDS011;59417;44.788;10.334;2023-08-07T10:04:29;0.85;;;0.70;;
28174;SDS011;59417;44.788;10.334;2023-08-07T10:06:55;0.90;;;0.80;;
28174;SDS011;59417;44.788;10.334;2023-08-07T10:09:22;2.75;;;0.90;;
28174;SDS011;59417;44.788;10.334;2023-08-07T10:11:49;1.38;;;0.63;;
28174;SDS011;59417;44.788;10.334;2023-08-07T10:14:15;3.53;;;0.90;;
28174;SDS011;59417;44.788;10.334;2023-08-07T10:16:42;1.20;;;0.65;;
28174;SDS011;59417;44.788;10.334;2023-08-07T10:19:08;2.10;;;0.60;;
28174;SDS011;59417;44.788;10.334;2023-08-07T10:21:40;0.95;;;0.70;;
28174;SDS011;59417;44.788;10.334;2023-08-07T10:24:07;1.10;;;0.60;;
28174;SDS011;59417;44.788;10.334;2023-08-07T10:26:40;0.93;;;0.65;;
28174;SDS011;59417;44.788;10.334;2023-08-07T10:29:09;0.68;;;0.60;;
28174;SDS011;59417;44.788;10.334;2023-08-07T10:31:38;0.60;;;0.57;;
28174;SDS011;59417;44.788;10.334;2023-08-07T10:34:07;1.58;;;0.60;;
28174;SDS011;59417;44.788;10.334;2023-08-07T10:36:33;2.15;;;0.55;;
28174;SDS011;59417;44.788;10.334;2023-08-07T10:39:10;1.92;;;0.57;;
28174;SDS011;59417;44.788;10.334;2023-08-07T10:41:46;1.55;;;0.73;;
28174;SDS011;59417;44.788;10.334;2023-08-07T10:46:52;1.95;;;0.63;;
28174;SDS011;59417;44.788;10.334;2023-08-07T10:49:35;1.65;;;0.52;;
28174;SDS011;59417;44.788;10.334;2023-08-07T10:52:14;0.75;;;0.50;;
28174;SDS011;59417;44.788;10.334;2023-08-07T10:54:49;1.75;;;0.68;;
28174;SDS011;59417;44.788;10.334;2023-08-07T10:57:16;1.00;;;0.60;;
28174;SDS011;59417;44.788;10.334;2023-08-07T11:02:24;0.95;;;0.55;;
28174;SDS011;59417;44.788;10.334;2023-08-07T11:04:51;0.50;;;0.50;;
28174;SDS011;59417;44.788;10.334;2023-08-07T11:07:24;1.35;;;0.55;;
28174;SDS011;59417;44.788;10.334;2023-08-07T11:09:53;0.60;;;0.50;;
28174;SDS011;59417;44.788;10.334;2023-08-07T11:12:19;0.60;;;0.60;;
28174;SDS011;59417;44.788;10.334;2023-08-07T11:14:45;2.30;;;0.70;;
28174;SDS011;59417;44.788;10.334;2023-08-07T11:17:12;1.05;;;0.73;;
28174;SDS011;59417;44.788;10.334;2023-08-07T11:19:38;0.57;;;0.50;;
28174;SDS011;59417;44.788;10.334;2023-08-07T11:22:04;0.60;;;0.60;;
28174;SDS011;59417;44.788;10.334;2023-08-07T11:24:30;1.48;;;0.90;;
28174;SDS011;59417;44.788;10.334;2023-08-07T11:26:55;1.55;;;0.70;;
28174;SDS011;59417;44.788;10.334;2023-08-07T11:29:22;2.00;;;0.60;;
28174;SDS011;59417;44.788;10.334;2023-08-07T11:31:53;0.80;;;0.50;;
28174;SDS011;59417;44.788;10.334;2023-08-07T11:34:18;1.27;;;0.40;;
28174;SDS011;59417;44.788;10.334;2023-08-07T11:36:45;0.60;;;0.60;;
28174;SDS011;59417;44.788;10.334;2023-08-07T11:39:11;3.28;;;0.80;;
28174;SDS011;59417;44.788;10.334;2023-08-07T11:41:37;2.88;;;0.77;;
28174;SDS011;59417;44.788;10.334;2023-08-07T11:44:03;0.68;;;0.60;;
28174;SDS011;59417;44.788;10.334;2023-08-07T11:46:29;1.40;;;0.63;;
28174;SDS011;59417;44.788;10.334;2023-08-07T11:48:55;1.30;;;0.70;;
28174;SDS011;59417;44.788;10.334;2023-08-07T11:51:21;1.50;;;0.77;;
28174;SDS011;59417;44.788;10.334;2023-08-07T11:53:47;4.43;;;0.90;;
28174;SDS011;59417;44.788;10.334;2023-08-07T11:56:13;10.30;;;0.80;;
28174;SDS011;59417;44.788;10.334;2023-08-07T11:58:43;0.68;;;0.60;;
28174;SDS011;59417;44.788;10.334;2023-08-07T12:01:11;1.00;;;0.65;;
28174;SDS011;59417;44.788;10.334;2023-08-07T12:03:51;2.95;;;0.80;;
28174;SDS011;59417;44.788;10.334;2023-08-07T12:06:23;0.57;;;0.57;;
28174;SDS011;59417;44.788;10.334;2023-08-07T12:08:50;0.68;;;0.60;;
28174;SDS011;59417;44.788;10.334;2023-08-07T12:13:46;0.68;;;0.52;;
28174;SDS011;59417;44.788;10.334;2023-08-07T12:16:15;0.68;;;0.68;;
28174;SDS011;59417;44.788;10.334;2023-08-07T12:18:46;1.35;;;0.60;;
28174;SDS011;59417;44.788;10.334;2023-08-07T12:21:16;0.77;;;0.60;;
28174;SDS011;59417;44.788;10.334;2023-08-07T12:23:47;1.25;;;0.70;;
28174;SDS011;59417;44.788;10.334;2023-08-07T12:26:13;0.52;;;0.52;;
28174;SDS011;59417;44.788;10.334;2023-08-07T12:28:39;1.00;;;0.90;;
28174;SDS011;59417;44.788;10.334;2023-08-07T12:31:05;0.65;;;0.65;;
28174;SDS011;59417;44.788;10.334;2023-08-07T12:33:32;1.20;;;0.63;;
28174;SDS011;59417;44.788;10.334;2023-08-07T12:35:58;0.93;;;0.60;;
28174;SDS011;59417;44.788;10.334;2023-08-07T12:38:25;1.65;;;0.70;;
28174;SDS011;59417;44.788;10.334;2023-08-07T12:40:51;0.75;;;0.75;;
28174;SDS011;59417;44.788;10.334;2023-08-07T12:43:17;1.80;;;0.73;;
28174;SDS011;59417;44.788;10.334;2023-08-07T12:45:43;0.60;;;0.60;;
28174;SDS011;59417;44.788;10.334;2023-08-07T12:48:08;0.73;;;0.68;;
28174;SDS011;59417;44.788;10.334;2023-08-07T12:50:35;2.42;;;0.60;;
28174;SDS011;59417;44.788;10.334;2023-08-07T12:53:01;0.65;;;0.60;;
28174;SDS011;59417;44.788;10.334;2023-08-07T12:55:27;1.30;;;0.80;;
28174;SDS011;59417;44.788;10.334;2023-08-07T12:57:53;0.73;;;0.70;;
28174;SDS011;59417;44.788;10.334;2023-08-07T13:00:19;1.40;;;0.90;;
28174;SDS011;59417;44.788;10.334;2023-08-07T13:02:46;0.90;;;0.77;;
28174;SDS011;59417;44.788;10.334;2023-08-07T13:05:14;2.60;;;0.88;;
28174;SDS011;59417;44.788;10.334;2023-08-07T13:07:42;1.63;;;0.75;;
28174;SDS011;59417;44.788;10.334;2023-08-07T13:10:09;1.98;;;0.77;;
28174;SDS011;59417;44.788;10.334;2023-08-07T13:12:37;1.10;;;0.80;;
28174;SDS011;59417;44.788;10.334;2023-08-07T13:15:04;1.17;;;0.70;;
28174;SDS011;59417;44.788;10.334;2023-08-07T13:17:30;1.88;;;0.60;;
28174;SDS011;59417;44.788;10.334;2023-08-07T13:19:57;0.98;;;0.60;;
28174;SDS011;59417;44.788;10.334;2023-08-07T13:22:24;2.05;;;0.70;;
28174;SDS011;59417;44.788;10.334;2023-08-07T13:24:50;2.33;;;0.80;;
28174;SDS011;59417;44.788;10.334;2023-08-07T13:27:15;2.08;;;0.68;;
28174;SDS011;59417;44.788;10.334;2023-08-07T13:29:41;1.00;;;0.90;;
28174;SDS011;59417;44.788;10.334;2023-08-07T13:32:07;0.82;;;0.80;;
28174;SDS011;59417;44.788;10.334;2023-08-07T13:34:36;3.63;;;1.00;;
28174;SDS011;59417;44.788;10.334;2023-08-07T13:37:02;3.45;;;0.80;;
28174;SDS011;59417;44.788;10.334;2023-08-07T13:39:29;0.85;;;0.73;;
28174;SDS011;59417;44.788;10.334;2023-08-07T13:41:55;1.95;;;0.80;;
28174;SDS011;59417;44.788;10.334;2023-08-07T13:44:21;1.02;;;0.90;;
28174;SDS011;59417;44.788;10.334;2023-08-07T13:46:47;3.00;;;0.70;;
28174;SDS011;59417;44.788;10.334;2023-08-07T13:49:13;0.50;;;0.50;;
28174;SDS011;59417;44.788;10.334;2023-08-07T13:51:40;1.48;;;0.80;;
28174;SDS011;59417;44.788;10.334;2023-08-07T13:54:06;1.08;;;0.90;;
28174;SDS011;59417;44.788;10.334;2023-08-07T13:56:33;0.73;;;0.73;;
28174;SDS011;59417;44.788;10.334;2023-08-07T13:58:59;0.90;;;0.80;;
28174;SDS011;59417;44.788;10.334;2023-08-07T14:01:25;0.80;;;0.80;;
28174;SDS011;59417;44.788;10.334;2023-08-07T14:03:51;2.38;;;0.80;;
28174;SDS011;59417;44.788;10.334;2023-08-07T14:06:17;0.95;;;0.93;;
28174;SDS011;59417;44.788;10.334;2023-08-07T14:08:42;1.58;;;0.85;;
28174;SDS011;59417;44.788;10.334;2023-08-07T14:11:08;0.77;;;0.50;;
28174;SDS011;59417;44.788;10.334;2023-08-07T14:13:34;4.13;;;0.75;;
28174;SDS011;59417;44.788;10.334;2023-08-07T14:15:59;1.40;;;0.70;;
28174;SDS011;59417;44.788;10.334;2023-08-07T14:18:25;0.95;;;0.60;;
28174;SDS011;59417;44.788;10.334;2023-08-07T14:20:52;0.70;;;0.70;;
28174;SDS011;59417;44.788;10.334;2023-08-07T14:23:17;2.75;;;0.68;;
28174;SDS011;59417;44.788;10.334;2023-08-07T14:25:44;1.15;;;0.75;;
28174;SDS011;59417;44.788;10.334;2023-08-07T14:28:10;1.00;;;0.60;;
28174;SDS011;59417;44.788;10.334;2023-08-07T14:30:36;0.82;;;0.75;;
28174;SDS011;59417;44.788;10.334;2023-08-07T14:33:01;1.92;;;0.50;;
28174;SDS011;59417;44.788;10.334;2023-08-07T14:35:27;3.10;;;0.68;;
28174;SDS011;59417;44.788;10.334;2023-08-07T14:37:52;1.60;;;0.80;;
28174;SDS011;59417;44.788;10.334;2023-08-07T14:40:18;0.68;;;0.60;;
28174;SDS011;59417;44.788;10.334;2023-08-07T14:42:44;1.35;;;0.80;;
28174;SDS011;59417;44.788;10.334;2023-08-07T14:45:09;2.70;;;1.10;;
28174;SDS011;59417;44.788;10.334;2023-08-07T14:47:35;1.92;;;0.80;;
28174;SDS011;59417;44.788;10.334;2023-08-07T14:50:01;0.93;;;0.85;;
28174;SDS011;59417;44.788;10.334;2023-08-07T14:52:26;0.75;;;0.75;;
28174;SDS011;59417;44.788;10.334;2023-08-07T14:54:52;0.82;;;0.80;;
28174;SDS011;59417;44.788;10.334;2023-08-07T14:57:21;1.17;;;0.90;;
28174;SDS011;59417;44.788;10.334;2023-08-07T14:59:46;3.10;;;0.88;;
28174;SDS011;59417;44.788;10.334;2023-08-07T15:02:12;1.83;;;0.90;;
28174;SDS011;59417;44.788;10.334;2023-08-07T15:04:38;0.98;;;0.77;;
28174;SDS011;59417;44.788;10.334;2023-08-07T15:07:03;1.98;;;0.85;;
28174;SDS011;59417;44.788;10.334;2023-08-07T15:09:29;1.02;;;0.68;;
28174;SDS011;59417;44.788;10.334;2023-08-07T15:11:55;1.60;;;1.10;;
28174;SDS011;59417;44.788;10.334;2023-08-07T15:14:21;1.05;;;0.73;;
28174;SDS011;59417;44.788;10.334;2023-08-07T15:16:46;3.50;;;0.90;;
28174;SDS011;59417;44.788;10.334;2023-08-07T15:19:12;2.30;;;1.02;;
28174;SDS011;59417;44.788;10.334;2023-08-07T15:21:38;4.90;;;0.82;;
28174;SDS011;59417;44.788;10.334;2023-08-07T15:24:03;2.58;;;0.90;;
28174;SDS011;59417;44.788;10.334;2023-08-07T15:26:29;1.00;;;0.90;;
28174;SDS011;59417;44.788;10.334;2023-08-07T15:28:55;1.45;;;1.00;;
28174;SDS011;59417;44.788;10.334;2023-08-07T15:31:20;1.15;;;0.85;;
28174;SDS011;59417;44.788;10.334;2023-08-07T15:33:46;2.10;;;1.00;;
28174;SDS011;59417;44.788;10.334;2023-08-07T15:36:15;3.88;;;0.80;;
28174;SDS011;59417;44.788;10.334;2023-08-07T15:38:41;1.10;;;0.80;;
28174;SDS011;59417;44.788;10.334;2023-08-07T15:41:06;0.98;;;0.90;;
28174;SDS011;59417;44.788;10.334;2023-08-07T15:43:32;0.73;;;0.73;;
28174;SDS011;59417;44.788;10.334;2023-08-07T15:45:58;1.15;;;0.73;;
28174;SDS011;59417;44.788;10.334;2023-08-07T15:48:24;2.88;;;0.77;;
28174;SDS011;59417;44.788;10.334;2023-08-07T15:50:49;0.70;;;0.60;;
28174;SDS011;59417;44.788;10.334;2023-08-07T15:53:15;3.38;;;0.70;;
28174;SDS011;59417;44.788;10.334;2023-08-07T15:55:41;0.90;;;0.63;;
28174;SDS011;59417;44.788;10.334;2023-08-07T15:58:06;0.95;;;0.70;;
28174;SDS011;59417;44.788;10.334;2023-08-07T16:00:32;0.98;;;0.82;;
28174;SDS011;59417;44.788;10.334;2023-08-07T16:03:04;1.75;;;0.90;;
28174;SDS011;59417;44.788;10.334;2023-08-07T16:05:31;1.92;;;0.80;;
28174;SDS011;59417;44.788;10.334;2023-08-07T16:07:58;0.77;;;0.60;;
28174;SDS011;59417;44.788;10.334;2023-08-07T16:10:24;1.02;;;0.80;;
28174;SDS011;59417;44.788;10.334;2023-08-07T16:12:52;3.42;;;0.98;;
28174;SDS011;59417;44.788;10.334;2023-08-07T16:15:18;1.33;;;0.52;;
28174;SDS011;59417;44.788;10.334;2023-08-07T16:17:44;1.27;;;0.93;;
28174;SDS011;59417;44.788;10.334;2023-08-07T16:20:10;1.23;;;0.80;;
28174;SDS011;59417;44.788;10.334;2023-08-07T16:22:36;2.78;;;0.80;;
28174;SDS011;59417;44.788;10.334;2023-08-07T16:25:02;1.55;;;0.65;;
28174;SDS011;59417;44.788;10.334;2023-08-07T16:27:29;1.00;;;0.90;;
28174;SDS011;59417;44.788;10.334;2023-08-07T16:29:55;0.93;;;0.75;;
28174;SDS011;59417;44.788;10.334;2023-08-07T16:32:21;1.08;;;0.80;;
28174;SDS011;59417;44.788;10.334;2023-08-07T16:34:46;1.10;;;0.88;;
28174;SDS011;59417;44.788;10.334;2023-08-07T16:37:12;2.13;;;0.65;;
28174;SDS011;59417;44.788;10.334;2023-08-07T16:39:38;1.10;;;0.68;;
28174;SDS011;59417;44.788;10.334;2023-08-07T16:42:04;1.80;;;0.93;;
28174;SDS011;59417;44.788;10.334;2023-08-07T16:44:31;1.42;;;0.90;;
28174;SDS011;59417;44.788;10.334;2023-08-07T16:46:56;1.15;;;0.73;;
28174;SDS011;59417;44.788;10.334;2023-08-07T16:49:22;2.85;;;0.70;;
28174;SDS011;59417;44.788;10.334;2023-08-07T16:51:47;4.40;;;0.90;;
28174;SDS011;59417;44.788;10.334;2023-08-07T16:54:13;2.30;;;0.98;;
28174;SDS011;59417;44.788;10.334;2023-08-07T16:56:39;2.60;;;0.93;;
28174;SDS011;59417;44.788;10.334;2023-08-07T16:59:05;2.03;;;1.08;;
28174;SDS011;59417;44.788;10.334;2023-08-07T17:01:30;1.40;;;0.93;;
28174;SDS011;59417;44.788;10.334;2023-08-07T17:03:56;5.30;;;0.90;;
28174;SDS011;59417;44.788;10.334;2023-08-07T17:06:21;2.13;;;1.08;;
28174;SDS011;59417;44.788;10.334;2023-08-07T17:08:47;1.98;;;1.20;;
28174;SDS011;59417;44.788;10.334;2023-08-07T17:11:17;2.65;;;1.20;;
28174;SDS011;59417;44.788;10.334;2023-08-07T17:13:44;1.50;;;1.00;;
28174;SDS011;59417;44.788;10.334;2023-08-07T17:16:09;1.58;;;1.13;;
28174;SDS011;59417;44.788;10.334;2023-08-07T17:18:35;1.17;;;1.00;;
28174;SDS011;59417;44.788;10.334;2023-08-07T17:21:00;2.85;;;1.30;;
28174;SDS011;59417;44.788;10.334;2023-08-07T17:23:26;2.58;;;1.13;;
28174;SDS011;59417;44.788;10.334;2023-08-07T17:25:52;3.03;;;1.00;;
28174;SDS011;59417;44.788;10.334;2023-08-07T17:28:17;1.95;;;1.00;;
28174;SDS011;59417;44.788;10.334;2023-08-07T17:30:43;1.05;;;0.77;;
28174;SDS011;59417;44.788;10.334;2023-08-07T17:33:09;4.45;;;1.13;;
28174;SDS011;59417;44.788;10.334;2023-08-07T17:35:34;3.15;;;0.80;;
28174;SDS011;59417;44.788;10.334;2023-08-07T17:38:00;3.00;;;1.17;;
28174;SDS011;59417;44.788;10.334;2023-08-07T17:40:26;2.33;;;1.23;;
28174;SDS011;59417;44.788;10.334;2023-08-07T17:42:52;6.30;;;1.38;;
28174;SDS011;59417;44.788;10.334;2023-08-07T17:45:17;1.80;;;1.33;;
28174;SDS011;59417;44.788;10.334;2023-08-07T17:47:43;3.38;;;1.00;;
28174;SDS011;59417;44.788;10.334;2023-08-07T17:50:09;2.97;;;1.40;;
28174;SDS011;59417;44.788;10.334;2023-08-07T17:52:35;1.55;;;1.10;;
28174;SDS011;59417;44.788;10.334;2023-08-07T17:55:02;1.50;;;0.75;;
28174;SDS011;59417;44.788;10.334;2023-08-07T17:57:29;3.42;;;0.98;;
28174;SDS011;59417;44.788;10.334;2023-08-07T17:59:54;1.73;;;1.20;;
28174;SDS011;59417;44.788;10.334;2023-08-07T18:02:20;3.22;;;0.90;;